Time Latitude Longitude Accuracy (66% radius in meters) Altitude (meters) Speed (km/hour) Bearing (degrees) Battery (%) GPS flag
09:52:33 55.944029 38.068157 8 176.54224823892 0.2566776573658 9.6324834823608 75 1 delete
09:52:21 55.943994 38.068150 8 175.79319668644 0.262172549963 116.75788116455 75 1 delete
09:52:09 55.943977 38.068148 16 176.45338828617 0.2555887401104 95.911483764648 75 1 delete
09:51:57 55.943996 38.068125 6 178.29105721183 0.41004222631454 219.98115539551 75 1 delete
09:51:45 55.944001 38.068144 6 180.20606954196 0.27781775593758 15.493654251099 75 1 delete
09:51:33 55.944014 38.068121 6 181.32095419512 0.59161740541458 61.316730499268 75 1 delete
09:51:27 55.944002 38.068055 6 181.6645798259 1.7175818681717 66.477012634277 75 1 delete
09:51:24 55.943980 38.067952 8 182.12311668167 1.643413901329 65.638282775879 75 1 delete
09:51:21 55.943958 38.067865 8 182.6562842272 1.4844143390656 67.651397705078 75 1 delete
09:51:18 55.943944 38.067759 8 183.37010779305 1.3149633407593 57.383857727051 75 1 delete
09:51:15 55.943911 38.067680 8 184.06581251715 1.1105471849442 55.169578552246 75 1 delete
09:51:06 55.943837 38.067574 8 186.62246360865 3.1330180168152 106.01660919189 75 1 delete
09:51:03 55.943789 38.067397 6 186.98405164542 3.380184173584 57.356651306152 75 1 delete
09:51:00 55.943617 38.067229 6 187.63851841934 2.9312598705292 357.25091552734 75 1 delete
09:50:57 55.943436 38.067088 8 188.09737894726 2.5813236236572 35.652877807617 75 1 delete
09:50:54 55.943357 38.066938 8 188.50435576287 2.5228705406189 57.911876678467 75 1 delete
09:50:48 55.943300 38.066853 8 188.6379266645 0 94.435981750488 75 1 delete
09:50:45 55.943244 38.066792 12 188.47021343207 3.3047466278076 354.6266784668 75 1 delete
09:50:42 55.943123 38.066850 6 188.22891234987 3.3347799777985 339.10147094727 75 1 delete
09:50:39 55.942998 38.066956 6 188.16331994049 3.3835759162903 327.35052490234 75 1 delete
09:50:36 55.942896 38.067011 6 187.87346864482 3.4267573356628 331.42483520508 75 1 delete
09:50:33 55.942786 38.067089 6 187.81774792021 3.3536734580994 329.95162963867 75 1 delete
09:50:30 55.942664 38.067193 8 187.83329064514 3.1817402839661 329.63272094727 75 1 delete
09:50:27 55.942528 38.067246 8 187.18804128513 2.9961748123169 354.09219360352 75 1 delete
09:50:24 55.942449 38.067247 8 186.91863938513 2.8764595985413 5.5843100547791 75 1 delete
09:50:21 55.942383 38.067188 8 187.06494402121 2.8125195503235 351.50555419922 75 1 delete
09:50:18 55.942363 38.067045 8 186.81832904149 3.0917007923126 99.292404174805 75 1 delete
09:50:15 55.942369 38.066835 8 186.48423630893 3.0631048679352 131.53115844727 75 1 delete
09:50:12 55.942431 38.066662 8 184.82730926519 2.7900581359863 87.196105957031 75 1 delete
09:50:09 55.942409 38.066560 8 184.88369820061 2.5464527606964 46.960998535156 75 1 delete
09:50:06 55.942341 38.066472 8 185.46272472174 1.3266575336456 66.138618469238 75 1 delete
09:50:03 55.942270 38.066374 12 186.19584836557 0.52258485555649 330.25869750977 75 1 delete
09:49:57 55.942246 38.066382 6 186.48445391152 2.8313822746277 9.4680252075195 75 1 delete
09:49:54 55.942139 38.066376 8 186.70486916182 3.0760822296143 347.2643737793 75 1 delete
09:49:51 55.942059 38.066374 6 186.91534420087 3.2215490341187 9.9283761978149 75 1 delete
09:49:48 55.941947 38.066325 6 187.20664889674 3.3014309406281 351.26651000977 75 1 delete
09:49:45 55.941842 38.066252 8 187.56660848396 3.3214528560638 24.418518066406 75 1 delete
09:49:42 55.941777 38.066146 8 188.03219697076 3.5052452087402 24.687854766846 75 1 delete
09:49:39 55.941797 38.066048 8 188.55774558737 3.7687640190125 87.341453552246 75 1 delete
09:49:36 55.941832 38.065830 8 188.5666560708 3.9401767253876 91.279258728027 75 1 delete
09:49:33 55.941851 38.065590 8 188.52540369975 4.0953888893127 94.291938781738 75 1 delete
09:49:30 55.941879 38.065362 8 186.63615324007 3.870124578476 117.09646606445 75 1 delete
09:49:27 55.941937 38.065163 8 185.51868111144 3.7932915687561 133.73913574219 75 1 delete
09:49:24 55.942017 38.064984 8 185.62513665002 3.8001449108124 136.73017883301 75 1 delete
09:49:21 55.942092 38.064752 12 184.81360684992 3.6019115447998 101.03727722168 75 1 delete
09:49:18 55.942127 38.064481 12 184.06645982747 3.3643057346344 115.02157592773 75 1 delete
09:49:15 55.942173 38.064244 8 184.3019761793 3.0982706546783 91.796997070312 75 1 delete
09:49:12 55.942192 38.063973 8 184.28421028506 2.9487998485565 105.79186248779 75 1 delete
09:49:09 55.942207 38.063800 12 184.2145195057 2.8614163398743 70.645851135254 75 1 delete
09:49:06 55.942175 38.063620 8 184.17886399587 2.8869817256927 97.212265014648 75 1 delete